Time;durP1;ratioP1;P1;durP2;ratioP2;P2;SDS_P1;SDS_P2;PMS_P1;PMS_P2;Temp;Humidity;BMP_temperature;BMP_pressure;BME280_temperature;BME280_humidity;BME280_pressure;Samples;Min_cycle;Max_cycle;Signal;HPM_P1;HPM_P2
2022/06/05 00:02:39;;;;;;;8.57;4.93;;;589.50;2432.00;;;;;;5011432;28;20443;-68
2022/06/05 00:05:43;;;;;;;6.63;4.00;;;589.40;2432.00;;;;;;5009146;28;20040;-80
2022/06/05 00:08:39;;;;;;;8.85;5.22;;;589.30;2432.00;;;;;;5009571;28;20222;-65
2022/06/05 00:11:07;;;;;;;6.45;4.68;;;589.10;2432.00;;;;;;5009530;28;20138;-83
2022/06/05 00:13:44;;;;;;;9.57;4.65;;;589.20;2432.00;;;;;;5009226;28;20041;-69
2022/06/05 00:16:14;;;;;;;6.38;4.45;;;589.10;2432.00;;;;;;5009337;28;20030;-62
2022/06/05 00:18:42;;;;;;;8.18;4.22;;;589.10;2432.00;;;;;;5009343;28;20030;-62
2022/06/05 00:21:08;;;;;;;7.00;4.93;;;589.10;2432.00;;;;;;5009374;28;20052;-83
2022/06/05 00:23:34;;;;;;;5.93;4.03;;;589.10;2432.00;;;;;;5008694;28;20443;-61
2022/06/05 00:26:25;;;;;;;5.95;4.18;;;589.10;2432.00;;;;;;5008918;28;20065;-61
2022/06/05 00:29:26;;;;;;;8.90;4.45;;;589.30;2432.00;;;;;;5008796;28;20026;-62
2022/06/05 00:32:04;;;;;;;9.57;4.43;;;589.50;2432.00;;;;;;4978127;28;20049;-82
2022/06/05 00:34:29;;;;;;;9.10;4.43;;;589.40;2432.00;;;;;;5007930;28;20026;-82
2022/06/05 00:37:12;;;;;;;6.88;4.28;;;589.10;2432.00;;;;;;5008153;28;20412;-61
2022/06/05 00:39:52;;;;;;;9.35;5.32;;;589.10;2432.00;;;;;;5009040;28;20068;-85
2022/06/05 00:42:23;;;;;;;10.13;4.85;;;589.00;2432.00;;;;;;4986235;28;20073;-83
2022/06/05 00:44:50;;;;;;;7.90;4.32;;;589.00;2432.00;;;;;;4971764;28;20041;-67
2022/06/05 00:47:20;;;;;;;8.10;3.95;;;589.00;2432.00;;;;;;4971664;28;20528;-82
2022/06/05 00:49:57;;;;;;;9.45;5.20;;;589.00;2432.00;;;;;;4971463;28;20367;-62
2022/06/05 00:52:26;;;;;;;10.90;5.10;;;588.90;2432.00;;;;;;4971644;28;20034;-61
2022/06/05 00:54:52;;;;;;;6.63;4.88;;;589.00;2432.00;;;;;;4971778;28;20027;-63
2022/06/05 00:57:18;;;;;;;7.85;4.38;;;564.10;2432.00;;;;;;4971892;28;20033;-65
2022/06/05 00:59:46;;;;;;;9.68;5.15;;;564.10;2432.00;;;;;;4971665;28;20023;-86
2022/06/05 01:02:12;;;;;;;8.15;4.35;;;564.10;2432.00;;;;;;4971740;28;20035;-61
2022/06/05 01:04:42;;;;;;;9.27;4.90;;;564.10;2432.00;;;;;;4971679;28;20038;-61
2022/06/05 01:07:08;;;;;;;7.72;4.43;;;564.10;2432.00;;;;;;4971565;28;20117;-82
2022/06/05 01:09:34;;;;;;;8.20;4.90;;;588.80;2432.00;;;;;;4971524;28;20082;-61
2022/06/05 01:12:18;;;;;;;7.45;4.63;;;588.80;2432.00;;;;;;4971619;28;20089;-62
2022/06/05 01:15:04;;;;;;;9.57;4.60;;;588.80;2432.00;;;;;;4971327;28;20031;-80
2022/06/05 01:17:53;;;;;;;7.55;4.78;;;564.10;2432.00;;;;;;4972050;28;20061;-62
2022/06/05 01:20:41;;;;;;;6.90;5.00;;;563.90;2432.00;;;;;;4971801;28;20532;-64
2022/06/05 01:23:34;;;;;;;7.97;4.60;;;563.80;2432.00;;;;;;4971409;28;20030;-79
2022/06/05 01:26:15;;;;;;;6.95;4.97;;;564.00;2432.00;;;;;;4971686;28;20023;-83
2022/06/05 01:28:50;;;;;;;7.95;4.57;;;564.10;2432.00;;;;;;4971790;28;20022;-62
2022/06/05 01:31:23;;;;;;;8.20;4.57;;;564.10;2432.00;;;;;;4971347;28;20037;-61
2022/06/05 01:34:17;;;;;;;6.57;4.88;;;589.00;2432.00;;;;;;4971633;28;20038;-73
2022/06/05 01:36:49;;;;;;;;;;;588.90;2432.00;;;;;;4971742;28;20067;-61
2022/06/05 01:39:25;;;;;;;6.50;4.57;;;564.10;2432.00;;;;;;5010301;28;19932;-86
2022/06/05 01:42:00;;;;;;;7.47;4.43;;;563.90;2432.00;;;;;;5010406;28;20041;-86
2022/06/05 01:44:34;;;;;;;5.40;4.28;;;563.90;2432.00;;;;;;5010191;28;20026;-86
2022/06/05 01:47:05;;;;;;;10.60;4.50;;;563.80;2432.00;;;;;;5014249;28;20141;-62
2022/06/05 01:49:39;;;;;;;6.97;4.70;;;564.00;2432.00;;;;;;5014148;28;20041;-71
2022/06/05 01:52:18;;;;;;;7.95;5.43;;;563.90;2432.00;;;;;;5013870;28;20026;-85
2022/06/05 01:54:58;;;;;;;7.15;4.78;;;564.10;2432.00;;;;;;5013851;28;20048;-61
2022/06/05 01:57:26;;;;;;;10.25;4.95;;;589.30;2432.00;;;;;;5013672;28;20025;-61
2022/06/05 02:00:03;;;;;;;6.30;4.38;;;589.50;2432.00;;;;;;5014013;28;20294;-61
2022/06/05 02:02:34;;;;;;;10.82;6.00;;;589.30;2432.00;;;;;;5014000;28;20034;-84
2022/06/05 02:05:09;;;;;;;9.05;4.75;;;588.90;2432.00;;;;;;5013706;28;20022;-62
2022/06/05 02:07:41;;;;;;;8.95;5.03;;;588.80;2432.00;;;;;;5013256;28;20022;-61
2022/06/05 02:10:13;;;;;;;6.55;4.43;;;564.10;2432.00;;;;;;5013987;28;20096;-84
2022/06/05 02:12:39;;;;;;;6.82;4.25;;;588.80;2432.00;;;;;;5013770;28;20033;-84
2022/06/05 02:15:06;;;;;;;8.77;5.18;;;588.90;2432.00;;;;;;5013381;28;20375;-62
2022/06/05 02:17:33;;;;;;;6.93;5.07;;;588.80;2432.00;;;;;;5013508;28;20026;-70
2022/06/05 02:20:00;;;;;;;6.95;4.32;;;564.10;2432.00;;;;;;5013516;28;20038;-70
2022/06/05 02:22:38;;;;;;;7.35;4.70;;;563.80;2432.00;;;;;;5013940;28;20079;-84
2022/06/05 02:25:05;;;;;;;5.03;3.97;;;563.90;2432.00;;;;;;5013517;28;20029;-61
2022/06/05 02:27:32;;;;;;;8.05;4.47;;;564.00;2432.00;;;;;;5013522;28;20038;-61
2022/06/05 02:29:58;;;;;;;5.93;4.05;;;563.70;2432.00;;;;;;5013618;28;20072;-61
2022/06/05 02:32:43;;;;;;;5.97;4.30;;;563.70;2432.00;;;;;;5013152;28;20095;-62
2022/06/05 02:35:27;;;;;;;11.55;5.18;;;563.60;2432.00;;;;;;5013557;28;20029;-61
2022/06/05 02:37:56;;;;;;;8.00;4.68;;;563.90;2432.00;;;;;;5012736;28;20045;-62
2022/06/05 02:40:30;;;;;;;9.38;5.82;;;564.10;2432.00;;;;;;5013332;28;20288;-83
2022/06/05 02:42:56;;;;;;;7.78;4.88;;;564.10;2432.00;;;;;;5013139;28;20029;-85
2022/06/05 02:45:51;;;;;;;5.63;4.10;;;564.10;2432.00;;;;;;5012976;28;20056;-65
2022/06/05 02:48:20;;;;;;;6.88;5.28;;;563.90;2432.00;;;;;;5013319;28;20026;-83
2022/06/05 02:51:05;;;;;;;18.90;4.93;;;563.80;2432.00;;;;;;5012814;28;20022;-85
2022/06/05 02:53:47;;;;;;;6.03;4.40;;;563.70;2432.00;;;;;;5013017;28;20022;-61
2022/06/05 02:56:13;;;;;;;6.28;4.68;;;563.70;2432.00;;;;;;5012410;28;20030;-61
2022/06/05 02:58:39;;;;;;;5.18;3.80;;;563.70;2432.00;;;;;;5012629;28;20034;-64
2022/06/05 03:03:49;;;;;;;7.95;4.57;;;589.00;2432.00;;;;;;5013018;28;20124;-62
2022/06/05 03:06:15;;;;;;;7.60;5.00;;;589.50;2432.00;;;;;;5012436;28;20022;-85
2022/06/05 03:08:41;;;;;;;5.93;4.60;;;589.70;2432.00;;;;;;5012359;28;20061;-74
2022/06/05 03:11:06;;;;;;;5.97;4.47;;;589.40;2432.00;;;;;;5012427;28;20460;-85
2022/06/05 03:13:32;;;;;;;9.25;4.25;;;589.30;2432.00;;;;;;5012379;28;20026;-61
2022/06/05 03:15:58;;;;;;;5.93;4.55;;;589.40;2432.00;;;;;;5012722;28;20468;-84
2022/06/05 03:18:24;;;;;;;5.10;4.38;;;589.30;2432.00;;;;;;5012455;28;20460;-80
2022/06/05 03:20:50;;;;;;;8.25;4.60;;;589.30;2432.00;;;;;;5012638;28;20435;-61
2022/06/05 03:23:15;;;;;;;6.97;4.90;;;589.40;2432.00;;;;;;5012403;28;20085;-85
2022/06/05 03:25:42;;;;;;;6.60;4.38;;;614.40;2432.00;;;;;;5012845;28;20149;-83
2022/06/05 03:28:09;;;;;;;5.80;4.38;;;614.80;2432.00;;;;;;5012397;28;20033;-84
2022/06/05 03:30:42;;;;;;;7.93;5.00;;;614.80;2432.00;;;;;;5012309;28;20030;-84
2022/06/05 03:33:08;;;;;;;8.23;5.32;;;614.80;2432.00;;;;;;5012311;28;20030;-61
2022/06/05 03:35:39;;;;;;;13.07;5.43;;;615.00;2432.00;;;;;;5011939;28;20053;-69
2022/06/05 03:38:05;;;;;;;5.72;3.95;;;615.00;2432.00;;;;;;5011475;28;20517;-81
2022/06/05 03:40:33;;;;;;;6.65;4.60;;;614.80;2432.00;;;;;;5012070;28;20030;-61
2022/06/05 03:42:59;;;;;;;6.25;4.28;;;615.00;2432.00;;;;;;5012197;28;20176;-61
2022/06/05 03:45:25;;;;;;;8.50;5.05;;;615.10;2432.00;;;;;;5011581;28;20032;-69
2022/06/05 03:47:50;;;;;;;7.70;4.72;;;614.90;2432.00;;;;;;5011880;28;20030;-81
2022/06/05 03:50:18;;;;;;;6.40;4.43;;;614.70;2432.00;;;;;;5011706;28;20422;-62
2022/06/05 03:52:44;;;;;;;5.85;4.47;;;614.50;2432.00;;;;;;5011642;28;20468;-61
2022/06/05 03:55:15;;;;;;;5.43;4.15;;;614.60;2432.00;;;;;;5011714;28;20026;-61
2022/06/05 03:57:41;;;;;;;5.60;4.78;;;614.40;2432.00;;;;;;5011793;28;20073;-62
2022/06/05 04:00:09;;;;;;;7.55;4.80;;;589.70;2432.00;;;;;;5011601;28;20495;-81
2022/06/05 04:02:35;;;;;;;7.65;4.32;;;589.50;2432.00;;;;;;5011298;28;20032;-69
2022/06/05 04:05:01;;;;;;;5.18;4.07;;;589.60;2432.00;;;;;;5011423;28;20079;-62
2022/06/05 04:07:27;;;;;;;6.55;4.55;;;589.40;2432.00;;;;;;5011171;28;20480;-72
2022/06/05 04:09:53;;;;;;;5.95;4.88;;;589.60;2432.00;;;;;;5011253;28;20043;-62
2022/06/05 04:12:19;;;;;;;7.30;5.50;;;614.40;2432.00;;;;;;5011385;28;20030;-71
2022/06/05 04:14:44;;;;;;;6.72;5.07;;;614.60;2432.00;;;;;;5010265;28;20030;-73
2022/06/05 04:17:11;;;;;;;7.30;5.38;;;614.60;2432.00;;;;;;5011285;28;20025;-62
2022/06/05 04:19:37;;;;;;;7.50;5.28;;;614.60;2432.00;;;;;;5011410;28;20029;-61
2022/06/05 04:22:04;;;;;;;6.70;5.13;;;614.60;2432.00;;;;;;5010883;28;20069;-63
2022/06/05 04:24:29;;;;;;;5.85;5.03;;;614.70;2432.00;;;;;;5011163;28;20105;-62
2022/06/05 04:26:55;;;;;;;8.15;4.97;;;614.90;2432.00;;;;;;5011234;28;20109;-78
2022/06/05 04:29:21;;;;;;;5.60;4.78;;;615.00;2432.00;;;;;;5011197;28;20104;-62
2022/06/05 04:31:48;;;;;;;7.55;4.70;;;615.30;2432.00;;;;;;5011304;28;20018;-78
2022/06/05 04:34:19;;;;;;;7.28;5.97;;;692.10;2432.00;;;;;;5011023;28;20022;-64
2022/06/05 04:36:46;;;;;;;9.73;6.43;;;793.90;2099.20;;;;;;5010460;28;20176;-62
2022/06/05 04:39:12;;;;;;;8.60;5.65;;;845.20;1817.60;;;;;;5010736;28;20120;-73
2022/06/05 04:41:39;;;;;;;8.25;5.40;;;871.30;1638.40;;;;;;5011093;28;20042;-76
2022/06/05 04:44:07;;;;;;;6.47;5.28;;;921.90;1536.00;;;;;;5010744;28;20026;-76
2022/06/05 04:46:34;;;;;;;7.47;5.22;;;922.50;1484.80;;;;;;5010589;28;20030;-72
2022/06/05 04:49:00;;;;;;;6.60;5.45;;;947.70;1433.60;;;;;;5010857;28;20025;-63
2022/06/05 04:51:26;;;;;;;6.88;6.25;;;948.10;1408.00;;;;;;5010820;28;20021;-76
2022/06/05 04:53:54;;;;;;;7.55;6.05;;;973.40;1356.80;;;;;;5010607;28;20036;-64
2022/06/05 04:56:24;;;;;;;5.93;4.68;;;973.40;1382.40;;;;;;5010558;28;20037;-65
2022/06/05 04:58:50;;;;;;;6.28;5.78;;;973.70;1356.80;;;;;;5010510;28;20022;-64
2022/06/05 05:01:20;;;;;;;7.22;6.35;;;998.60;1356.80;;;;;;5010209;28;20033;-68
2022/06/05 05:03:46;;;;;;;6.15;5.50;;;973.30;1356.80;;;;;;5010366;28;20022;-67
2022/06/05 05:06:13;;;;;;;7.32;5.85;;;922.00;1459.20;;;;;;5010296;28;20049;-67
2022/06/05 05:08:39;;;;;;;9.23;6.10;;;921.90;1459.20;;;;;;5010293;28;20030;-65
2022/06/05 05:11:05;;;;;;;6.38;5.68;;;922.40;1433.60;;;;;;5010408;28;20030;-71
2022/06/05 05:13:31;;;;;;;5.90;5.40;;;973.00;1382.40;;;;;;5010573;28;20050;-74
2022/06/05 05:15:57;;;;;;;6.60;6.00;;;1024.90;1228.80;;;;;;5010063;28;20049;-75
2022/06/05 05:18:23;;;;;;;6.53;5.85;;;1075.20;1203.20;;;;;;5010081;28;20036;-66
2022/06/05 05:20:50;;;;;;;6.18;5.32;;;1049.70;1254.40;;;;;;5012387;28;20042;-67
2022/06/05 05:23:19;;;;;;;6.53;5.90;;;1075.60;1177.60;;;;;;5014469;28;20030;-75
2022/06/05 05:25:46;;;;;;;6.90;6.30;;;1050.20;1228.80;;;;;;5014329;28;20357;-74
2022/06/05 05:28:12;;;;;;;8.45;7.10;;;1075.20;1203.20;;;;;;5014473;28;20096;-74
2022/06/05 05:30:41;;;;;;;5.93;5.43;;;1075.90;1152.00;;;;;;5014547;28;20464;-74
2022/06/05 05:33:07;;;;;;;8.45;7.13;;;1126.80;1126.40;;;;;;5014472;28;20033;-75
2022/06/05 05:35:33;;;;;;;7.05;6.55;;;1152.40;1075.20;;;;;;5014086;28;20018;-74
2022/06/05 05:37:59;;;;;;;8.18;7.47;;;1178.20;998.40;;;;;;5013881;28;20061;-71
2022/06/05 05:43:09;;;;;;;8.20;7.53;;;1228.80;972.80;;;;;;5014343;28;20095;-68
2022/06/05 05:45:35;;;;;;;9.15;8.32;;;;;;;;;;5013892;28;20026;-73
2022/06/05 05:48:00;;;;;;;9.20;8.50;;;1228.90;998.40;;;;;;5014012;28;20052;-71
2022/06/05 05:50:26;;;;;;;8.65;7.85;;;1152.10;1075.20;;;;;;5013758;28;20456;-74
2022/06/05 05:52:52;;;;;;;8.68;8.00;;;1152.10;1075.20;;;;;;5013938;28;20060;-73
2022/06/05 05:55:19;;;;;;;10.90;9.68;;;1152.00;1049.60;;;;;;5013892;28;20510;-76
2022/06/05 05:57:48;;;;;;;10.23;9.43;;;1152.00;1075.20;;;;;;5013507;28;20380;-67
2022/06/05 06:00:17;;;;;;;9.38;8.75;;;1152.00;1049.60;;;;;;5013421;28;20022;-67
2022/06/05 06:02:43;;;;;;;9.75;8.90;;;1203.60;998.40;;;;;;5013330;28;20519;-70
2022/06/05 06:05:13;;;;;;;9.15;8.55;;;1229.30;947.20;;;;;;5013731;28;20057;-65
2022/06/05 06:07:39;;;;;;;10.60;9.70;;;1229.20;972.80;;;;;;5013686;28;20105;-69
2022/06/05 06:10:07;;;;;;;11.02;10.32;;;1203.80;972.80;;;;;;5013387;28;20109;-71
2022/06/05 06:12:33;;;;;;;12.80;10.52;;;1254.50;972.80;;;;;;5013200;28;20045;-74
2022/06/05 06:14:58;;;;;;;10.57;9.70;;;1203.30;998.40;;;;;;5013300;28;20026;-72
2022/06/05 06:17:24;;;;;;;11.40;10.70;;;1178.30;998.40;;;;;;5012987;28;20476;-75
2022/06/05 06:19:50;;;;;;;10.52;9.75;;;1152.70;1024.00;;;;;;5013139;28;20551;-73
2022/06/05 06:22:17;;;;;;;10.43;9.70;;;1152.40;1049.60;;;;;;5013046;28;20087;-73
2022/06/05 06:24:42;;;;;;;10.60;9.70;;;1152.90;1024.00;;;;;;5012982;28;20055;-73
2022/06/05 06:27:08;;;;;;;10.23;9.32;;;1203.60;972.80;;;;;;5013195;28;20635;-70
2022/06/05 06:29:35;;;;;;;11.13;10.27;;;1229.50;921.60;;;;;;5012816;28;20026;-68
2022/06/05 06:32:01;;;;;;;10.95;10.02;;;1280.00;921.60;;;;;;5012953;28;20022;-73
2022/06/05 06:34:27;;;;;;;11.77;10.98;;;1254.40;972.80;;;;;;5012673;28;20022;-74
2022/06/05 06:36:53;;;;;;;10.25;9.65;;;1229.70;947.20;;;;;;5012535;28;20030;-67
2022/06/05 06:39:19;;;;;;;13.05;12.07;;;1255.10;947.20;;;;;;5012794;28;20442;-67
2022/06/05 06:41:45;;;;;;;12.23;11.32;;;1280.70;921.60;;;;;;5012629;28;20423;-74
2022/06/05 06:44:11;;;;;;;12.45;11.65;;;1280.90;896.00;;;;;;5012726;28;20026;-67
2022/06/05 06:46:37;;;;;;;12.80;12.00;;;1305.60;896.00;;;;;;5012639;28;20488;-66
2022/06/05 06:49:04;;;;;;;12.70;11.65;;;1280.90;896.00;;;;;;5012354;28;20054;-75
2022/06/05 06:51:29;;;;;;;12.38;11.68;;;1305.70;870.40;;;;;;5012522;28;20038;-65
2022/06/05 06:53:55;;;;;;;12.10;11.30;;;1305.90;870.40;;;;;;5012296;28;20026;-77
2022/06/05 06:56:24;;;;;;;12.85;12.05;;;1356.80;844.80;;;;;;5012679;28;20022;-73
2022/06/05 06:58:50;;;;;;;12.88;11.98;;;1331.20;844.80;;;;;;5012597;28;20026;-75
2022/06/05 07:01:16;;;;;;;12.50;11.65;;;1306.30;844.80;;;;;;5012203;28;20042;-72
2022/06/05 07:03:42;;;;;;;13.40;12.60;;;1331.20;870.40;;;;;;5011143;28;20373;-67
2022/06/05 07:06:11;;;;;;;13.40;12.02;;;1280.90;896.00;;;;;;5012507;28;20405;-76
2022/06/05 07:08:37;;;;;;;13.82;12.95;;;1305.90;870.40;;;;;;5012083;28;20025;-64
2022/06/05 07:11:06;;;;;;;14.95;13.85;;;1280.00;921.60;;;;;;5012207;28;20061;-67
2022/06/05 07:13:32;;;;;;;13.73;12.68;;;1254.90;921.60;;;;;;5012157;28;20034;-65
2022/06/05 07:15:58;;;;;;;14.00;13.10;;;1254.40;947.20;;;;;;5012229;28;20357;-63
2022/06/05 07:18:24;;;;;;;14.13;13.13;;;1255.30;896.00;;;;;;5011838;28;20108;-66
2022/06/05 07:20:50;;;;;;;13.57;12.77;;;1280.00;896.00;;;;;;5012196;28;20038;-69
2022/06/05 07:23:16;;;;;;;13.30;12.38;;;1280.70;870.40;;;;;;5011701;28;20029;-66
2022/06/05 07:25:50;;;;;;;13.15;12.38;;;1280.70;870.40;;;;;;5012144;28;20105;-74
2022/06/05 07:28:17;;;;;;;12.50;11.50;;;1254.80;896.00;;;;;;5011969;28;20373;-77
2022/06/05 07:30:47;;;;;;;12.85;12.13;;;1229.00;921.60;;;;;;5011724;28;20510;-68
2022/06/05 07:33:13;;;;;;;12.52;11.52;;;1229.20;921.60;;;;;;5011960;28;20030;-67
2022/06/05 07:35:40;;;;;;;12.57;11.75;;;1254.80;896.00;;;;;;5012288;28;20034;-72
2022/06/05 07:38:05;;;;;;;12.88;12.07;;;1228.80;947.20;;;;;;5011528;28;20499;-75
2022/06/05 07:40:31;;;;;;;11.32;10.63;;;1203.90;921.60;;;;;;5011661;28;20070;-75
2022/06/05 07:42:57;;;;;;;12.02;11.32;;;1204.10;921.60;;;;;;5011063;28;20068;-68
2022/06/05 07:45:23;;;;;;;11.27;10.57;;;1203.80;921.60;;;;;;5011607;28;20460;-67
2022/06/05 07:47:48;;;;;;;10.48;9.77;;;1203.90;921.60;;;;;;5011678;28;20029;-65
2022/06/05 07:50:14;;;;;;;11.75;10.93;;;1228.80;972.80;;;;;;5011702;28;20022;-75
2022/06/05 07:55:25;;;;;;;10.10;9.50;;;1178.30;947.20;;;;;;5011583;28;20045;-74
2022/06/05 07:57:51;;;;;;;11.32;10.43;;;1203.80;896.00;;;;;;5011483;28;20026;-68
2022/06/05 08:00:17;;;;;;;11.18;10.38;;;1178.50;921.60;;;;;;5011227;28;20457;-70
2022/06/05 08:02:42;;;;;;;11.90;11.10;;;1178.30;947.20;;;;;;5011204;28;20423;-67
2022/06/05 08:05:09;;;;;;;11.70;10.93;;;1178.10;947.20;;;;;;5011509;28;20022;-68
2022/06/05 08:07:36;;;;;;;10.77;10.07;;;1178.10;947.20;;;;;;5011165;28;20060;-67
2022/06/05 08:10:04;;;;;;;10.85;10.05;;;1177.60;947.20;;;;;;5011220;28;20041;-75
2022/06/05 08:12:32;;;;;;;13.15;12.10;;;1152.70;972.80;;;;;;5011281;28;20064;-67
2022/06/05 08:15:03;;;;;;;10.63;9.68;;;1101.20;1049.60;;;;;;5011046;28;20025;-69
2022/06/05 08:17:30;;;;;;;7.93;7.13;;;999.30;1126.40;;;;;;5011329;28;20026;-74
2022/06/05 08:19:57;;;;;;;7.07;6.13;;;948.10;1203.20;;;;;;5011024;28;20128;-67
2022/06/05 08:22:24;;;;;;;11.43;9.77;;;947.20;1228.80;;;;;;5010684;28;20034;-74
2022/06/05 08:24:52;;;;;;;9.38;7.93;;;921.80;1305.60;;;;;;5010969;28;20026;-73
2022/06/05 08:27:23;;;;;;;8.77;7.90;;;896.70;1305.60;;;;;;5011225;28;20121;-72
2022/06/05 08:29:49;;;;;;;8.10;7.15;;;896.20;1331.20;;;;;;5010908;28;20019;-75
2022/06/05 08:32:15;;;;;;;8.93;7.82;;;871.30;1331.20;;;;;;5010619;28;20080;-74
2022/06/05 08:34:42;;;;;;;10.52;7.70;;;871.30;1331.20;;;;;;5010985;28;20109;-67
2022/06/05 08:43:04;;;;;;;5.70;4.60;;;870.70;1382.40;;;;;;5010868;28;20135;-66
2022/06/05 08:45:39;;;;;;;7.18;5.90;;;870.50;1356.80;;;;;;5010807;28;20048;-67
2022/06/05 08:48:14;;;;;;;5.75;4.72;;;870.40;1408.00;;;;;;5010598;28;20065;-71
2022/06/05 08:50:46;;;;;;;6.72;5.13;;;870.70;1408.00;;;;;;5010608;28;20021;-74
2022/06/05 08:53:21;;;;;;;7.00;6.30;;;845.70;1356.80;;;;;;5010847;28;20034;-74
2022/06/05 08:55:48;;;;;;;9.98;5.85;;;870.60;1408.00;;;;;;5009641;28;20033;-73
2022/06/05 08:58:45;;;;;;;6.50;4.88;;;870.50;1382.40;;;;;;5010496;28;20026;-72
2022/06/05 09:01:17;;;;;;;7.38;6.63;;;870.50;1356.80;;;;;;5010055;28;20590;-66
2022/06/05 09:03:56;;;;;;;5.57;4.55;;;870.60;1356.80;;;;;;5010309;28;20018;-66
2022/06/05 09:06:24;;;;;;;6.88;6.10;;;845.60;1382.40;;;;;;5010456;28;20538;-71
2022/06/05 09:08:56;;;;;;;6.97;5.82;;;845.60;1433.60;;;;;;5010075;28;20034;-73
2022/06/05 09:11:40;;;;;;;7.45;5.25;;;845.20;1459.20;;;;;;5010346;28;20052;-69
2022/06/05 09:14:25;;;;;;;8.27;6.45;;;844.80;1433.60;;;;;;5010464;28;20115;-68
2022/06/05 09:16:54;;;;;;;5.57;4.18;;;820.10;1459.20;;;;;;5010319;28;20065;-71
2022/06/05 09:19:29;;;;;;;6.10;4.47;;;845.00;1459.20;;;;;;5010297;28;20380;-71
2022/06/05 09:22:15;;;;;;;7.85;6.45;;;820.10;1408.00;;;;;;5009736;28;20052;-73
2022/06/05 09:24:56;;;;;;;5.78;4.82;;;844.80;1459.20;;;;;;5010117;28;20083;-72
2022/06/05 09:27:31;;;;;;;10.13;7.40;;;844.90;1459.20;;;;;;5010290;28;20026;-72
2022/06/05 09:30:04;;;;;;;25.95;21.08;;;820.10;1433.60;;;;;;5010174;28;20400;-73
2022/06/05 09:33:04;;;;;;;16.27;12.77;;;820.10;1433.60;;;;;;5010285;28;20030;-72
2022/06/05 09:35:39;;;;;;;8.05;5.82;;;820.10;1433.60;;;;;;5009527;28;20404;-67
2022/06/05 09:38:24;;;;;;;6.30;4.75;;;820.10;1408.00;;;;;;5010016;28;20066;-74
2022/06/05 09:41:12;;;;;;;5.55;4.95;;;845.10;1408.00;;;;;;5010185;28;20084;-73
2022/06/05 09:44:13;;;;;;;7.53;5.65;;;844.80;1459.20;;;;;;5010256;28;20018;-71
2022/06/05 09:46:58;;;;;;;5.80;4.68;;;820.10;1382.40;;;;;;5010381;28;20099;-69
2022/06/05 09:49:41;;;;;;;8.77;6.05;;;820.10;1382.40;;;;;;5010026;28;20022;-72
2022/06/05 09:52:19;;;;;;;5.65;4.20;;;844.90;1433.60;;;;;;5010406;28;20022;-77
2022/06/05 09:54:52;;;;;;;8.18;6.05;;;845.10;1382.40;;;;;;5009800;28;20480;-67
2022/06/05 10:00:31;;;;;;;8.50;6.32;;;844.90;1382.40;;;;;;5009904;28;20037;-72
2022/06/05 10:03:20;;;;;;;5.32;3.60;;;845.20;1408.00;;;;;;5009782;28;20384;-66
2022/06/05 10:06:17;;;;;;;4.75;3.72;;;844.80;1356.80;;;;;;5009987;28;20033;-76
2022/06/05 10:08:50;;;;;;;4.65;3.88;;;820.10;1331.20;;;;;;5013820;28;20030;-66
2022/06/05 10:11:34;;;;;;;;;;;820.10;1331.20;;;;;;5013832;28;20030;-76
2022/06/05 10:14:31;;;;;;;10.20;5.88;;;820.10;1331.20;;;;;;5013548;28;19909;-74
2022/06/05 10:17:31;;;;;;;7.90;5.55;;;844.80;1382.40;;;;;;5013164;28;20053;-66
2022/06/05 10:20:31;;;;;;;7.35;6.32;;;845.00;1408.00;;;;;;5013418;28;20030;-72
2022/06/05 10:23:03;;;;;;;4.95;3.78;;;844.90;1331.20;;;;;;5012061;28;20133;-75
2022/06/05 10:25:52;;;;;;;7.10;5.30;;;844.90;1331.20;;;;;;5013318;28;20030;-76
2022/06/05 10:28:30;;;;;;;5.93;4.50;;;844.80;1356.80;;;;;;5013381;28;20022;-70
2022/06/05 10:31:00;;;;;;;5.70;3.55;;;820.10;1331.20;;;;;;5013240;28;20037;-66
2022/06/05 10:33:44;;;;;;;5.10;4.57;;;820.10;1305.60;;;;;;5012873;28;20022;-68
2022/06/05 10:36:19;;;;;;;6.07;3.50;;;819.80;1356.80;;;;;;5013248;28;20084;-69
2022/06/05 10:38:48;;;;;;;4.85;3.60;;;819.70;1331.20;;;;;;5012734;28;20049;-75
2022/06/05 10:41:26;;;;;;;8.30;6.72;;;819.70;1356.80;;;;;;5012699;28;20045;-72
2022/06/05 10:44:10;;;;;;;13.90;11.15;;;819.90;1433.60;;;;;;5012912;28;20484;-66
2022/06/05 10:47:04;;;;;;;5.82;4.10;;;820.10;1459.20;;;;;;5012730;28;20076;-76
2022/06/05 10:49:46;;;;;;;7.03;5.63;;;844.80;1382.40;;;;;;5011854;28;20042;-75
2022/06/05 10:52:27;;;;;;;11.27;6.20;;;820.10;1382.40;;;;;;5012763;28;20503;-74
2022/06/05 10:55:17;;;;;;;6.38;5.22;;;844.90;1433.60;;;;;;5012401;28;20018;-71
2022/06/05 10:57:51;;;;;;;5.85;4.07;;;844.90;1408.00;;;;;;5012551;28;20026;-71
2022/06/05 11:00:21;;;;;;;8.80;5.15;;;844.90;1356.80;;;;;;5012316;28;20385;-67
2022/06/05 11:03:11;;;;;;;5.00;3.70;;;820.10;1331.20;;;;;;5012403;28;20057;-75
2022/06/05 11:06:12;;;;;;;7.38;4.40;;;820.10;1331.20;;;;;;5012368;28;20053;-72
2022/06/05 11:09:02;;;;;;;4.53;3.70;;;820.10;1408.00;;;;;;5011811;28;20042;-76
2022/06/05 11:14:33;;;;;;;5.63;4.20;;;820.00;1356.80;;;;;;5012710;28;20076;-71
2022/06/05 11:17:31;;;;;;;6.38;4.65;;;819.90;1433.60;;;;;;5012149;28;20079;-75
2022/06/05 11:20:13;;;;;;;8.55;6.32;;;819.90;1408.00;;;;;;5012100;28;20033;-74
2022/06/05 11:23:02;;;;;;;4.78;3.55;;;819.90;1433.60;;;;;;5012320;28;20480;-72
2022/06/05 11:25:46;;;;;;;7.00;5.20;;;820.10;1331.20;;;;;;5012227;28;20531;-75
2022/06/05 11:28:26;;;;;;;3.92;3.38;;;844.90;1433.60;;;;;;5011993;28;20116;-71
2022/06/05 11:31:01;;;;;;;3.58;2.60;;;844.80;1356.80;;;;;;5011880;28;20026;-68
2022/06/05 11:33:29;;;;;;;6.68;4.47;;;844.90;1382.40;;;;;;5011911;28;20033;-74
2022/06/05 11:36:30;;;;;;;9.65;6.72;;;820.00;1331.20;;;;;;5011812;28;20030;-75
2022/06/05 11:39:23;;;;;;;5.05;4.55;;;820.10;1408.00;;;;;;5011340;28;20056;-74
2022/06/05 11:42:04;;;;;;;5.75;4.28;;;820.10;1331.20;;;;;;5011642;28;20077;-70
2022/06/05 11:44:59;;;;;;;5.15;4.43;;;844.80;1356.80;;;;;;5011684;28;20029;-72
2022/06/05 11:47:45;;;;;;;5.07;3.50;;;820.10;1356.80;;;;;;5010834;28;20037;-75
2022/06/05 11:50:11;;;;;;;5.38;3.33;;;820.00;1356.80;;;;;;5011559;28;20050;-67
2022/06/05 11:53:02;;;;;;;5.22;3.70;;;819.90;1356.80;;;;;;5011539;28;20092;-67
2022/06/05 11:55:34;;;;;;;4.55;3.47;;;820.10;1382.40;;;;;;5010826;28;20125;-71
2022/06/05 11:58:08;;;;;;;3.63;3.08;;;820.10;1356.80;;;;;;5011478;28;20084;-75
2022/06/05 12:00:46;;;;;;;5.57;3.75;;;844.80;1408.00;;;;;;5011099;28;20030;-74
2022/06/05 12:03:25;;;;;;;3.95;3.55;;;820.10;1356.80;;;;;;5011358;28;21049;-74
2022/06/05 12:05:56;;;;;;;12.30;8.07;;;819.90;1356.80;;;;;;5011319;28;20469;-75
2022/06/05 12:08:30;;;;;;;8.10;6.53;;;820.10;1408.00;;;;;;5011395;28;20519;-68
2022/06/05 12:11:09;;;;;;;5.80;4.90;;;844.80;1433.60;;;;;;5011020;28;20472;-72
2022/06/05 12:13:41;;;;;;;4.80;3.90;;;844.90;1433.60;;;;;;5011242;28;20025;-74
2022/06/05 12:16:12;;;;;;;8.30;6.15;;;844.90;1408.00;;;;;;5011162;28;20030;-73
2022/06/05 12:18:53;;;;;;;6.18;4.82;;;844.90;1459.20;;;;;;5011301;28;20026;-75
2022/06/05 12:21:22;;;;;;;5.95;4.00;;;844.90;1408.00;;;;;;5011228;28;20069;-74
2022/06/05 12:24:00;;;;;;;6.22;3.83;;;845.10;1382.40;;;;;;5011046;28;20511;-74
2022/06/05 12:26:34;;;;;;;3.60;3.30;;;845.00;1382.40;;;;;;5010873;28;20045;-67
2022/06/05 12:29:05;;;;;;;5.32;3.20;;;844.90;1382.40;;;;;;5010858;28;20116;-74
2022/06/05 12:31:38;;;;;;;3.80;3.35;;;844.80;1382.40;;;;;;5011157;28;20026;-70
2022/06/05 12:34:16;;;;;;;10.40;5.47;;;820.10;1356.80;;;;;;5010793;28;20029;-68
2022/06/05 12:36:52;;;;;;;5.18;4.25;;;844.80;1459.20;;;;;;5010800;28;20030;-68
2022/06/05 12:39:26;;;;;;;5.65;3.67;;;844.90;1433.60;;;;;;5010724;28;20038;-65
2022/06/05 12:42:11;;;;;;;4.85;4.35;;;845.00;1408.00;;;;;;5010654;28;20088;-73
2022/06/05 12:44:44;;;;;;;7.35;5.00;;;844.90;1408.00;;;;;;5010643;28;20022;-66
2022/06/05 12:47:34;;;;;;;4.25;3.80;;;844.90;1459.20;;;;;;5010882;28;20033;-72
2022/06/05 12:50:11;;;;;;;4.70;3.75;;;845.20;1484.80;;;;;;5010657;28;20026;-68
2022/06/05 12:52:54;;;;;;;4.72;3.78;;;844.90;1433.60;;;;;;5010519;28;20033;-73
2022/06/05 12:55:40;;;;;;;4.28;3.88;;;844.80;1408.00;;;;;;5010572;28;20472;-71
2022/06/05 12:58:26;;;;;;;5.03;3.92;;;845.00;1433.60;;;;;;5010445;28;20056;-74
2022/06/05 13:01:11;;;;;;;5.72;3.85;;;844.80;1459.20;;;;;;5010447;28;20034;-74
2022/06/05 13:03:51;;;;;;;5.78;4.13;;;844.80;1433.60;;;;;;5010378;28;20113;-72